createdAt,value
2022-10-20T00:03:35.408Z,11.3
2022-10-20T00:08:41.692Z,11.3
2022-10-20T00:13:47.819Z,11.3
2022-10-20T00:18:54.027Z,11.3
2022-10-20T00:24:00.234Z,11.3
2022-10-20T00:29:06.487Z,11.2
2022-10-20T00:34:12.654Z,11.2
2022-10-20T00:39:18.865Z,11.2
2022-10-20T00:44:25.083Z,11.1
2022-10-20T00:49:31.272Z,11.1
2022-10-20T00:54:37.482Z,11.1
2022-10-20T00:59:43.687Z,11.1
2022-10-20T01:04:50.093Z,11.0
2022-10-20T01:09:56.109Z,11.0
2022-10-20T01:15:02.316Z,11.0
2022-10-20T01:20:08.514Z,11.0
2022-10-20T01:25:14.740Z,10.9
2022-10-20T01:30:20.941Z,10.9
2022-10-20T01:35:27.159Z,10.9
2022-10-20T01:40:32.384Z,10.9
2022-10-20T01:45:38.588Z,10.8
2022-10-20T01:50:43.824Z,10.8
2022-10-20T01:55:50.034Z,10.8
2022-10-20T02:06:02.456Z,10.8
2022-10-20T02:11:08.658Z,10.8
2022-10-20T02:16:14.860Z,10.8
2022-10-20T02:21:21.066Z,10.8
2022-10-20T02:26:27.275Z,10.8
2022-10-20T02:31:33.491Z,10.8
2022-10-20T02:36:39.705Z,10.8
2022-10-20T02:41:45.905Z,10.9
2022-10-20T02:46:52.105Z,10.9
2022-10-20T02:51:58.319Z,10.9
2022-10-20T02:57:04.524Z,11.0
2022-10-20T03:02:10.730Z,11.0
2022-10-20T03:07:16.947Z,11.0
2022-10-20T03:12:23.146Z,11.0
2022-10-20T03:17:29.362Z,11.1
2022-10-20T03:22:35.563Z,11.0
2022-10-20T03:27:41.777Z,11.0
2022-10-20T03:32:47.982Z,11.1
2022-10-20T03:37:53.221Z,11.1
2022-10-20T03:42:59.430Z,11.1
2022-10-20T03:48:04.664Z,11.1
2022-10-20T03:53:10.870Z,11.2
2022-10-20T03:58:17.097Z,11.2
2022-10-20T04:03:23.277Z,11.2
2022-10-20T04:08:29.526Z,11.3
2022-10-20T04:13:35.698Z,11.3
2022-10-20T04:18:41.919Z,11.3
2022-10-20T04:23:48.116Z,11.4
2022-10-20T04:28:54.320Z,11.4
2022-10-20T04:34:00.529Z,11.4
2022-10-20T04:39:06.733Z,11.5
2022-10-20T04:44:12.949Z,11.5
2022-10-20T04:49:19.151Z,11.6
2022-10-20T04:54:25.365Z,11.6
2022-10-20T04:59:31.569Z,11.6
2022-10-20T05:04:37.777Z,11.6
2022-10-20T05:09:43.984Z,11.7
2022-10-20T05:14:50.194Z,11.7
2022-10-20T05:19:56.402Z,11.7
2022-10-20T05:25:24.422Z,11.8
2022-10-20T05:30:08.832Z,11.8
2022-10-20T05:35:14.062Z,11.8
2022-10-20T05:40:20.261Z,11.9
2022-10-20T05:45:25.499Z,11.9
2022-10-20T05:50:31.769Z,12.0
2022-10-20T05:55:37.915Z,12.0
2022-10-20T06:00:44.132Z,12.0
2022-10-20T06:05:50.324Z,12.0
2022-10-20T06:10:56.537Z,12.1
2022-10-20T06:16:02.751Z,12.1
2022-10-20T06:21:08.955Z,12.2
2022-10-20T06:26:15.165Z,12.2
2022-10-20T06:31:21.376Z,12.3
2022-10-20T06:36:27.580Z,12.4
2022-10-20T06:41:33.793Z,12.5
2022-10-20T06:46:40.008Z,12.6
2022-10-20T06:51:46.222Z,12.7
2022-10-20T06:56:52.420Z,12.8
2022-10-20T07:01:58.695Z,13.0
2022-10-20T07:07:04.834Z,13.1
2022-10-20T07:12:11.033Z,13.2
2022-10-20T07:17:17.249Z,13.3
2022-10-20T07:22:23.452Z,13.4
2022-10-20T07:27:29.663Z,13.5
2022-10-20T07:32:35.377Z,13.6
2022-10-20T07:37:41.106Z,13.7
2022-10-20T07:42:46.342Z,13.7
2022-10-20T07:47:52.551Z,13.8
2022-10-20T07:52:58.753Z,13.9
2022-10-20T07:58:04.962Z,13.9
2022-10-20T08:03:11.181Z,14.0
2022-10-20T08:08:17.378Z,14.1
2022-10-20T08:13:23.590Z,14.2
2022-10-20T08:18:29.805Z,14.3
2022-10-20T08:23:36.002Z,14.4
2022-10-20T08:28:42.214Z,14.4
2022-10-20T08:33:52.387Z,14.5
2022-10-20T08:38:54.635Z,14.6
2022-10-20T08:44:00.850Z,14.7
2022-10-20T08:49:07.055Z,14.8
2022-10-20T08:54:13.274Z,14.9
2022-10-20T08:59:19.483Z,15.0
2022-10-20T09:04:25.691Z,15.1
2022-10-20T09:09:31.898Z,15.3
2022-10-20T09:14:38.114Z,15.4
2022-10-20T09:19:44.331Z,15.4
2022-10-20T09:24:50.565Z,15.5
2022-10-20T09:29:55.793Z,15.6
2022-10-20T09:35:02.014Z,15.7
2022-10-20T09:40:07.255Z,15.8
2022-10-20T09:45:13.471Z,15.9
2022-10-20T09:50:19.674Z,15.9
2022-10-20T09:55:25.880Z,16.0
2022-10-20T10:00:37.253Z,16.1
2022-10-20T10:05:38.298Z,16.2
2022-10-20T10:10:44.515Z,16.3
2022-10-20T10:15:50.730Z,16.3
2022-10-20T10:20:56.945Z,16.4
2022-10-20T10:26:03.452Z,16.4
2022-10-20T10:31:09.399Z,16.4
2022-10-20T10:36:15.569Z,16.5
2022-10-20T10:41:21.765Z,16.5
2022-10-20T10:46:27.977Z,16.5
2022-10-20T10:51:34.187Z,16.5
2022-10-20T10:56:40.400Z,16.5
2022-10-20T11:01:46.607Z,16.5
2022-10-20T11:06:55.579Z,16.5
2022-10-20T11:11:59.020Z,16.5
2022-10-20T11:17:05.231Z,16.5
2022-10-20T11:22:14.049Z,16.5
2022-10-20T11:27:16.668Z,16.5
2022-10-20T11:32:22.937Z,16.5
2022-10-20T11:37:29.091Z,16.4
2022-10-20T11:42:35.772Z,16.4
2022-10-20T11:47:41.565Z,16.4
2022-10-20T11:52:47.725Z,16.3
2022-10-20T11:57:56.459Z,16.3
2022-10-20T12:03:00.145Z,16.2
2022-10-20T12:08:28.130Z,16.2
2022-10-20T12:13:12.575Z,16.2
2022-10-20T12:18:18.776Z,16.2
2022-10-20T12:23:24.988Z,16.2
2022-10-20T12:28:31.234Z,16.2
2022-10-20T12:33:37.398Z,16.3
2022-10-20T12:38:43.606Z,16.3
2022-10-20T12:43:49.822Z,16.4
2022-10-20T12:48:56.033Z,16.5
2022-10-20T12:54:02.250Z,16.5
2022-10-20T12:59:08.457Z,16.6
2022-10-20T13:04:14.657Z,16.7
2022-10-20T13:09:20.872Z,16.7
2022-10-20T13:14:26.100Z,16.7
2022-10-20T13:19:32.320Z,16.7
2022-10-20T13:24:40.599Z,16.8
2022-10-20T13:29:43.803Z,16.8
2022-10-20T13:34:49.961Z,17.0
2022-10-20T13:39:55.201Z,17.1
2022-10-20T13:45:01.420Z,17.3
2022-10-20T13:50:07.769Z,17.5
2022-10-20T13:55:13.835Z,17.5
2022-10-20T14:00:20.044Z,17.6
2022-10-20T14:05:26.257Z,17.7
2022-10-20T14:10:32.465Z,17.7
2022-10-20T14:15:38.667Z,17.8
2022-10-20T14:20:44.877Z,17.9
2022-10-20T14:25:51.091Z,18.0
2022-10-20T14:30:57.286Z,18.3
2022-10-20T14:36:03.502Z,18.4
2022-10-20T14:41:09.707Z,18.6
2022-10-20T14:46:15.917Z,18.6
2022-10-20T14:51:22.129Z,18.7
2022-10-20T14:56:28.332Z,18.7
2022-10-20T15:01:34.540Z,18.8
2022-10-20T15:06:40.751Z,18.8
2022-10-20T15:11:46.961Z,18.8
2022-10-20T15:16:53.169Z,18.7
2022-10-20T15:21:59.520Z,18.7
2022-10-20T15:27:04.617Z,18.6
2022-10-20T15:32:10.821Z,18.6
2022-10-20T15:37:17.038Z,18.5
2022-10-20T15:42:23.246Z,18.4
2022-10-20T15:47:29.448Z,18.4
2022-10-20T15:52:35.973Z,18.3
2022-10-20T15:57:41.866Z,18.2
2022-10-20T16:02:48.082Z,18.1
2022-10-20T16:07:54.287Z,18.1
2022-10-20T16:13:00.499Z,18.0
2022-10-20T16:18:09.642Z,17.9
2022-10-20T16:23:12.910Z,17.8
2022-10-20T16:28:19.123Z,17.8
2022-10-20T16:33:25.330Z,17.7
2022-10-20T16:38:31.532Z,17.6
2022-10-20T16:43:37.741Z,17.5
2022-10-20T16:48:47.288Z,17.4
2022-10-20T16:53:50.155Z,17.3
2022-10-20T16:58:56.363Z,17.2
2022-10-20T17:04:02.581Z,17.2
2022-10-20T17:09:08.827Z,17.1
2022-10-20T17:14:14.018Z,17.0
2022-10-20T17:19:20.235Z,17.0
2022-10-20T17:24:25.483Z,16.9
2022-10-20T17:29:31.679Z,16.8
2022-10-20T17:34:37.883Z,16.8
2022-10-20T17:39:44.090Z,16.7
2022-10-20T17:44:50.294Z,16.7
2022-10-20T17:49:56.587Z,16.6
2022-10-20T17:55:02.715Z,16.6
2022-10-20T18:00:11.748Z,16.5
2022-10-20T18:05:15.124Z,16.4
2022-10-20T18:15:27.542Z,16.3
2022-10-20T18:20:34.434Z,16.3
2022-10-20T18:25:39.963Z,16.3
2022-10-20T18:30:46.169Z,16.2
2022-10-20T18:35:52.380Z,16.2
2022-10-20T18:40:58.585Z,16.2
2022-10-20T18:46:04.795Z,16.2
2022-10-20T18:51:11.008Z,16.2
2022-10-20T18:56:17.213Z,16.2
2022-10-20T19:01:23.503Z,16.2
2022-10-20T19:06:29.628Z,16.2
2022-10-20T19:11:34.900Z,16.2
2022-10-20T19:16:41.073Z,16.3
2022-10-20T19:21:46.297Z,16.3
2022-10-20T19:27:02.154Z,16.3
2022-10-20T19:31:57.746Z,16.3
2022-10-20T19:37:03.949Z,16.3
2022-10-20T19:42:10.163Z,16.3
2022-10-20T19:47:16.364Z,16.3
2022-10-20T19:52:22.580Z,16.3
2022-10-20T19:57:28.786Z,16.3
2022-10-20T20:02:35.323Z,16.3
2022-10-20T20:07:41.201Z,16.2
2022-10-20T20:12:47.415Z,16.2
2022-10-20T20:17:53.613Z,16.2
2022-10-20T20:22:59.827Z,16.1
2022-10-20T20:28:06.046Z,16.1
2022-10-20T20:38:18.449Z,16.0
2022-10-20T20:43:24.664Z,16.0
2022-10-20T20:48:30.866Z,16.0
2022-10-20T20:53:37.086Z,15.9
2022-10-20T20:58:43.306Z,15.9
2022-10-20T21:03:49.501Z,15.8
2022-10-20T21:08:55.825Z,15.8
2022-10-20T21:14:01.915Z,15.8
2022-10-20T21:19:07.156Z,15.7
2022-10-20T21:24:13.379Z,15.7
2022-10-20T21:29:18.622Z,15.7
2022-10-20T21:34:24.835Z,15.7
2022-10-20T21:44:37.277Z,15.7
2022-10-20T21:49:43.493Z,15.7
2022-10-20T21:54:49.700Z,15.7
2022-10-20T21:59:55.909Z,15.7
2022-10-20T22:05:02.184Z,15.7
2022-10-20T22:10:08.349Z,15.7
2022-10-20T22:15:14.565Z,15.7
2022-10-20T22:20:20.782Z,15.6
2022-10-20T22:25:26.993Z,15.7
2022-10-20T22:30:33.211Z,15.7
2022-10-20T22:35:39.420Z,15.7
2022-10-20T22:40:45.643Z,15.7
2022-10-20T22:45:51.853Z,15.7
2022-10-20T22:50:58.071Z,15.7
2022-10-20T22:56:04.286Z,15.7
2022-10-20T23:01:10.727Z,15.7
2022-10-20T23:06:16.704Z,15.8
2022-10-20T23:11:22.924Z,15.8
2022-10-20T23:16:28.170Z,15.8
2022-10-20T23:21:34.362Z,15.8
2022-10-20T23:26:39.599Z,15.8
2022-10-20T23:31:45.815Z,15.8
2022-10-20T23:36:52.025Z,15.8
2022-10-20T23:41:59.073Z,15.8
2022-10-20T23:47:04.440Z,15.8
2022-10-20T23:52:10.679Z,15.8
2022-10-20T23:57:16.883Z,15.9
